createdAt,value
2023-02-18T00:01:53.996Z,97784.50
2023-02-18T00:04:22.366Z,97784.19
2023-02-18T00:06:51.491Z,97783.38
2023-02-18T00:09:19.738Z,97777.02
2023-02-18T00:11:48.156Z,97780.34
2023-02-18T00:14:17.352Z,97781.77
2023-02-18T00:16:46.921Z,97785.44
2023-02-18T00:19:20.330Z,97783.05
2023-02-18T00:21:48.969Z,97772.52
2023-02-18T00:24:17.801Z,97772.70
2023-02-18T00:26:46.205Z,97778.05
2023-02-18T00:29:14.705Z,97780.27
2023-02-18T00:31:43.789Z,97777.64
2023-02-18T00:34:13.573Z,97769.30
2023-02-18T00:36:42.805Z,97765.06
2023-02-18T00:39:13.456Z,97758.41
2023-02-18T00:41:43.414Z,97755.29
2023-02-18T00:44:13.272Z,97748.52
2023-02-18T00:46:42.597Z,97743.67
2023-02-18T00:49:11.345Z,97734.98
2023-02-18T00:51:41.543Z,97737.39
2023-02-18T00:54:10.208Z,97737.04
2023-02-18T00:56:38.865Z,97736.16
2023-02-18T00:59:07.204Z,97736.35
2023-02-18T01:01:35.835Z,97732.89
2023-02-18T01:04:05.903Z,97719.09
2023-02-18T01:06:34.541Z,97710.45
2023-02-18T01:09:05.423Z,97708.91
2023-02-18T01:11:34.190Z,97697.85
2023-02-18T01:14:02.533Z,97690.75
2023-02-18T01:16:31.286Z,97677.95
2023-02-18T01:18:59.883Z,97671.71
2023-02-18T01:21:28.318Z,97677.05
2023-02-18T01:23:56.710Z,97673.55
2023-02-18T01:26:25.415Z,97676.73
2023-02-18T01:28:53.971Z,97675.97
2023-02-18T01:31:22.978Z,97673.17
2023-02-18T01:33:52.572Z,97675.92
2023-02-18T01:36:22.026Z,97679.36
2023-02-18T01:38:50.488Z,97678.16
2023-02-18T01:41:18.919Z,97669.73
2023-02-18T01:43:47.170Z,97675.63
2023-02-18T01:46:20.407Z,97672.89
2023-02-18T01:48:58.991Z,97664.62
2023-02-18T01:51:32.428Z,97667.05
2023-02-18T01:54:17.231Z,97657.05
2023-02-18T01:56:56.582Z,97649.84
2023-02-18T01:59:31.021Z,97651.23
2023-02-18T02:02:00.118Z,97651.79
2023-02-18T02:04:31.368Z,97645.20
2023-02-18T02:07:00.929Z,97643.17
2023-02-18T02:09:31.627Z,97644.92
2023-02-18T02:12:31.187Z,97647.45
2023-02-18T02:15:18.315Z,97635.66
2023-02-18T02:18:05.449Z,97634.81
2023-02-18T02:20:58.054Z,97628.77
2023-02-18T02:23:51.418Z,97622.39
2023-02-18T02:26:50.449Z,97616.71
2023-02-18T02:29:28.276Z,97607.74
2023-02-18T02:32:25.548Z,97605.86
2023-02-18T02:35:00.166Z,97606.38
2023-02-18T02:37:43.901Z,97611.77
2023-02-18T02:40:31.530Z,97615.22
2023-02-18T02:43:21.362Z,97613.86
2023-02-18T02:45:59.817Z,97614.24
2023-02-18T02:48:48.740Z,97609.95
2023-02-18T02:51:35.337Z,97601.66
2023-02-18T02:54:30.237Z,97600.66
2023-02-18T02:57:09.408Z,97599.46
2023-02-18T02:59:43.725Z,97591.55
2023-02-18T03:02:33.161Z,97591.56
2023-02-18T03:05:09.459Z,97587.77
2023-02-18T03:07:57.215Z,97587.10
2023-02-18T03:10:35.097Z,97578.49
2023-02-18T03:13:41.645Z,97569.35
2023-02-18T03:16:35.571Z,97555.52
2023-02-18T03:19:30.364Z,97558.45
2023-02-18T03:22:41.697Z,97567.40
2023-02-18T03:25:11.306Z,97563.25
2023-02-18T03:27:54.166Z,97564.64
2023-02-18T03:30:56.852Z,97567.74
2023-02-18T03:33:39.128Z,97570.14
2023-02-18T03:36:08.613Z,97563.38
2023-02-18T03:38:45.400Z,97565.13
2023-02-18T03:41:14.538Z,97564.63
2023-02-18T03:43:51.420Z,97565.86
2023-02-18T03:46:20.189Z,97568.48
2023-02-18T03:48:48.538Z,97567.98
2023-02-18T03:51:16.675Z,97566.11
2023-02-18T03:53:45.044Z,97568.02
2023-02-18T03:56:15.131Z,97567.88
2023-02-18T03:58:43.911Z,97560.95
2023-02-18T04:01:12.910Z,97556.80
2023-02-18T04:03:41.326Z,97562.67
2023-02-18T04:06:10.704Z,97562.34
2023-02-18T04:08:39.365Z,97559.91
2023-02-18T04:11:07.988Z,97560.25
2023-02-18T04:13:36.442Z,97563.52
2023-02-18T04:16:05.175Z,97563.33
2023-02-18T04:18:33.904Z,97562.11
2023-02-18T04:21:02.152Z,97549.16
2023-02-18T04:23:31.171Z,97548.29
2023-02-18T04:26:00.153Z,97547.95
2023-02-18T04:28:30.285Z,97543.45
2023-02-18T04:30:59.440Z,97538.08
2023-02-18T04:33:28.527Z,97533.77
2023-02-18T04:35:57.529Z,97534.64
2023-02-18T04:38:25.991Z,97532.06
2023-02-18T04:40:55.306Z,97532.73
2023-02-18T04:43:23.988Z,97536.72
2023-02-18T04:45:52.638Z,97536.89
2023-02-18T04:48:21.403Z,97540.20
2023-02-18T04:50:49.934Z,97539.68
2023-02-18T04:53:18.366Z,97538.80
2023-02-18T04:55:53.779Z,97539.33
2023-02-18T04:58:22.585Z,97537.42
2023-02-18T05:00:51.525Z,97550.55
2023-02-18T05:03:20.400Z,97551.70
2023-02-18T05:05:49.052Z,97553.23
2023-02-18T05:08:17.565Z,97554.59
2023-02-18T05:10:45.746Z,97553.55
2023-02-18T05:13:14.108Z,97551.45
2023-02-18T05:15:42.830Z,97552.31
2023-02-18T05:18:11.818Z,97553.89
2023-02-18T05:20:40.555Z,97559.44
2023-02-18T05:23:08.856Z,97560.65
2023-02-18T05:25:37.412Z,97557.70
2023-02-18T05:28:06.060Z,97559.63
2023-02-18T05:30:34.743Z,97562.04
2023-02-18T05:33:03.338Z,97559.96
2023-02-18T05:35:31.934Z,97557.88
2023-02-18T05:38:00.392Z,97555.41
2023-02-18T05:40:28.899Z,97558.66
2023-02-18T05:42:57.320Z,97561.94
2023-02-18T05:45:25.923Z,97566.77
2023-02-18T05:47:55.150Z,97565.90
2023-02-18T05:50:23.507Z,97562.96
2023-02-18T05:52:52.710Z,97557.77
2023-02-18T05:55:22.101Z,97557.61
2023-02-18T05:57:51.315Z,97559.68
2023-02-18T06:00:20.737Z,97561.59
2023-02-18T06:02:49.712Z,97559.89
2023-02-18T06:05:18.617Z,97563.20
2023-02-18T06:07:47.032Z,97558.90
2023-02-18T06:10:15.876Z,97558.05
2023-02-18T06:12:44.987Z,97558.77
2023-02-18T06:15:13.646Z,97555.84
2023-02-18T06:17:41.831Z,97558.30
2023-02-18T06:20:11.186Z,97557.45
2023-02-18T06:22:39.667Z,97558.35
2023-02-18T06:25:08.256Z,97554.39
2023-02-18T06:27:36.819Z,97549.74
2023-02-18T06:30:05.877Z,97544.05
2023-02-18T06:32:34.217Z,97551.17
2023-02-18T06:35:06.024Z,97552.05
2023-02-18T06:37:34.472Z,97550.16
2023-02-18T06:40:02.881Z,97556.58
2023-02-18T06:42:31.231Z,97550.34
2023-02-18T06:44:59.556Z,97554.69
2023-02-18T06:47:27.918Z,97551.40
2023-02-18T06:49:56.175Z,97554.35
2023-02-18T06:52:24.658Z,97559.17
2023-02-18T06:54:53.168Z,97561.70
2023-02-18T06:57:22.155Z,97559.06
2023-02-18T06:59:51.511Z,97560.16
2023-02-18T07:02:21.415Z,97556.29
2023-02-18T07:04:50.252Z,97551.39
2023-02-18T07:07:18.876Z,97551.73
2023-02-18T07:09:48.229Z,97546.52
2023-02-18T07:12:16.609Z,97538.14
2023-02-18T07:14:44.953Z,97532.45
2023-02-18T07:17:14.113Z,97529.38
2023-02-18T07:19:42.807Z,97529.39
2023-02-18T07:22:11.236Z,97528.60
2023-02-18T07:24:40.310Z,97529.21
2023-02-18T07:27:08.434Z,97529.11
2023-02-18T07:29:36.664Z,97536.30
2023-02-18T07:32:05.334Z,97539.13
2023-02-18T07:34:33.706Z,97542.21
2023-02-18T07:37:02.232Z,97543.44
2023-02-18T07:39:30.670Z,97543.99
2023-02-18T07:41:59.667Z,97547.37
2023-02-18T07:44:28.678Z,97543.92
2023-02-18T07:46:58.372Z,97537.13
2023-02-18T07:49:28.278Z,97540.96
2023-02-18T07:51:56.858Z,97536.84
2023-02-18T07:54:25.389Z,97536.02
2023-02-18T07:56:53.630Z,97534.77
2023-02-18T07:59:22.037Z,97535.02
2023-02-18T08:01:50.509Z,97538.62
2023-02-18T08:04:19.483Z,97533.76
2023-02-18T08:06:50.098Z,97544.80
2023-02-18T08:09:19.154Z,97545.08
2023-02-18T08:11:47.584Z,97544.45
2023-02-18T08:14:16.623Z,97546.61
2023-02-18T08:16:45.508Z,97546.94
2023-02-18T08:19:14.541Z,97547.86
2023-02-18T08:21:43.100Z,97548.44
2023-02-18T08:24:11.480Z,97547.96
2023-02-18T08:26:51.269Z,97554.78
2023-02-18T08:29:28.764Z,97560.34
2023-02-18T08:31:59.249Z,97564.68
2023-02-18T08:34:27.325Z,97567.85
2023-02-18T08:36:55.618Z,97566.30
2023-02-18T08:39:24.088Z,97565.08
2023-02-18T08:41:52.387Z,97570.92
2023-02-18T08:44:20.514Z,97576.95
2023-02-18T08:46:49.645Z,97576.23
2023-02-18T08:49:17.949Z,97574.52
2023-02-18T08:51:46.720Z,97569.42
2023-02-18T08:54:17.753Z,97560.78
2023-02-18T08:56:47.757Z,97557.31
2023-02-18T08:59:17.446Z,97561.40
2023-02-18T09:01:45.999Z,97559.25
2023-02-18T09:04:14.972Z,97551.22
2023-02-18T09:06:43.828Z,97553.75
2023-02-18T09:09:12.234Z,97557.23
2023-02-18T09:11:41.581Z,97560.71
2023-02-18T09:14:11.104Z,97557.73
2023-02-18T09:16:41.825Z,97563.14
2023-02-18T09:19:10.998Z,97563.85
2023-02-18T09:21:40.326Z,97567.88
2023-02-18T09:24:10.129Z,97577.38
2023-02-18T09:26:39.740Z,97576.38
2023-02-18T09:29:08.498Z,97584.01
2023-02-18T09:31:38.262Z,97591.88
2023-02-18T09:34:07.071Z,97586.74
2023-02-18T09:36:37.156Z,97585.52
2023-02-18T09:39:06.937Z,97581.13
2023-02-18T09:41:44.460Z,97585.81
2023-02-18T09:44:42.643Z,97596.17
2023-02-18T09:47:24.771Z,97595.73
2023-02-18T09:49:57.967Z,97587.85
2023-02-18T09:52:34.322Z,97593.34
2023-02-18T09:55:21.056Z,97588.21
2023-02-18T09:57:57.067Z,97588.68
2023-02-18T10:00:40.798Z,97590.17
2023-02-18T10:03:16.906Z,97590.66
2023-02-18T10:06:10.773Z,97584.67
2023-02-18T10:08:44.908Z,97585.77
2023-02-18T10:11:17.361Z,97580.77
2023-02-18T10:13:46.289Z,97582.85
2023-02-18T10:16:19.826Z,97583.70
2023-02-18T10:18:56.367Z,97576.17
2023-02-18T10:21:27.759Z,97575.57
2023-02-18T10:24:21.516Z,97572.94
2023-02-18T10:26:50.548Z,97579.90
2023-02-18T10:29:21.945Z,97573.40
2023-02-18T10:31:54.687Z,97565.41
2023-02-18T10:34:42.115Z,97558.81
2023-02-18T10:37:40.514Z,97552.42
2023-02-18T10:40:34.606Z,97545.53
2023-02-18T10:43:24.661Z,97549.35
2023-02-18T10:46:14.726Z,97547.70
2023-02-18T10:48:57.527Z,97534.81
2023-02-18T10:51:36.162Z,97526.43
2023-02-18T10:54:04.882Z,97522.38
2023-02-18T10:56:48.618Z,97523.91
2023-02-18T10:59:32.212Z,97519.24
2023-02-18T11:02:06.323Z,97521.20
2023-02-18T11:04:39.839Z,97509.25
2023-02-18T11:07:23.874Z,97522.02
2023-02-18T11:09:56.653Z,97518.71
2023-02-18T11:12:46.938Z,97513.95
2023-02-18T11:15:16.665Z,97516.52
2023-02-18T11:17:49.960Z,97514.52
2023-02-18T11:20:30.543Z,97501.09
2023-02-18T11:23:06.501Z,97511.97
2023-02-18T11:25:37.245Z,97506.89
2023-02-18T11:28:18.584Z,97494.13
2023-02-18T11:30:53.682Z,97493.94
2023-02-18T11:33:31.677Z,97507.41
2023-02-18T11:36:07.316Z,97500.55
2023-02-18T11:38:37.096Z,97496.17
2023-02-18T11:41:11.666Z,97489.73
2023-02-18T11:43:55.248Z,97484.95
2023-02-18T11:46:27.950Z,97478.52
2023-02-18T11:48:57.130Z,97483.32
2023-02-18T11:51:37.022Z,97474.64
2023-02-18T11:54:30.421Z,97463.70
2023-02-18T11:57:14.297Z,97466.81
2023-02-18T11:59:43.699Z,97479.02
2023-02-18T12:02:11.811Z,97472.25
2023-02-18T12:04:43.427Z,97480.66
2023-02-18T12:07:24.421Z,97485.20
2023-02-18T12:10:23.693Z,97476.27
2023-02-18T12:13:02.908Z,97475.80
2023-02-18T12:15:49.990Z,97470.70
2023-02-18T12:18:30.630Z,97473.27
2023-02-18T12:21:05.315Z,97464.05
2023-02-18T12:23:58.792Z,97463.61
2023-02-18T12:26:33.634Z,97458.27
2023-02-18T12:29:26.223Z,97455.28
2023-02-18T12:32:19.718Z,97456.53
2023-02-18T12:35:25.512Z,97459.09
2023-02-18T12:38:04.252Z,97461.63
2023-02-18T12:41:17.265Z,97461.30
2023-02-18T12:43:52.186Z,97459.20
2023-02-18T12:46:55.106Z,97454.28
2023-02-18T12:49:45.439Z,97459.03
2023-02-18T12:52:43.473Z,97453.84
2023-02-18T12:55:48.988Z,97454.77
2023-02-18T12:58:31.644Z,97449.13
2023-02-18T13:01:09.025Z,97457.64
2023-02-18T13:04:00.137Z,97460.03
2023-02-18T13:06:46.758Z,97452.23
2023-02-18T13:09:39.740Z,97453.44
2023-02-18T13:12:33.136Z,97451.23
2023-02-18T13:15:11.771Z,97448.20
2023-02-18T13:17:43.285Z,97460.27
2023-02-18T13:20:22.775Z,97457.48
2023-02-18T13:22:53.726Z,97449.31
2023-02-18T13:25:22.906Z,97448.35
2023-02-18T13:28:13.407Z,97446.27
2023-02-18T13:30:57.829Z,97445.95
2023-02-18T13:33:45.187Z,97439.55
2023-02-18T13:36:18.438Z,97447.23
2023-02-18T13:39:03.706Z,97443.55
2023-02-18T13:41:41.638Z,97441.64
2023-02-18T13:44:29.777Z,97440.41
2023-02-18T13:47:00.088Z,97435.07
2023-02-18T13:49:38.469Z,97434.57
2023-02-18T13:52:07.772Z,97434.31
2023-02-18T13:54:45.203Z,97437.84
2023-02-18T13:57:26.465Z,97430.13
2023-02-18T14:00:06.354Z,97434.98
2023-02-18T14:02:36.946Z,97431.95
2023-02-18T14:05:08.865Z,97438.48
2023-02-18T14:07:46.454Z,97433.53
2023-02-18T14:10:18.632Z,97421.86
2023-02-18T14:12:56.411Z,97416.11
2023-02-18T14:15:25.141Z,97417.88
2023-02-18T14:18:15.779Z,97423.02
2023-02-18T14:20:51.498Z,97428.67
2023-02-18T14:23:23.852Z,97426.60
2023-02-18T14:26:15.945Z,97421.75
2023-02-18T14:28:49.344Z,97415.68
2023-02-18T14:31:34.999Z,97415.34
2023-02-18T14:34:26.567Z,97410.21
2023-02-18T14:37:05.162Z,97413.47
2023-02-18T14:40:06.701Z,97420.08
2023-02-18T14:42:47.099Z,97422.27
2023-02-18T14:45:41.288Z,97422.29
2023-02-18T14:48:33.438Z,97423.41
2023-02-18T14:51:02.508Z,97418.16
2023-02-18T14:53:30.927Z,97413.34
2023-02-18T14:56:05.579Z,97408.41
2023-02-18T14:58:38.839Z,97407.41
2023-02-18T15:01:17.658Z,97410.42
2023-02-18T15:03:49.395Z,97403.00
2023-02-18T15:06:29.968Z,97395.65
2023-02-18T15:09:00.420Z,97397.11
2023-02-18T15:11:39.815Z,97407.37
2023-02-18T15:14:19.687Z,97409.42
2023-02-18T15:16:50.093Z,97406.79
2023-02-18T15:19:26.896Z,97404.25
2023-02-18T15:21:58.034Z,97404.33
2023-02-18T15:24:38.480Z,97403.91
2023-02-18T15:27:21.311Z,97405.23
2023-02-18T15:29:52.914Z,97399.41
2023-02-18T15:32:30.933Z,97396.48
2023-02-18T15:35:02.439Z,97395.52
2023-02-18T15:37:31.966Z,97394.89
2023-02-18T15:40:00.914Z,97395.32
2023-02-18T15:42:36.929Z,97392.98
2023-02-18T15:45:15.993Z,97395.45
2023-02-18T15:47:56.293Z,97395.77
2023-02-18T15:50:28.953Z,97396.07
2023-02-18T15:53:00.949Z,97395.14
2023-02-18T15:55:34.729Z,97391.43
2023-02-18T15:58:07.995Z,97392.11
2023-02-18T16:00:42.920Z,97392.88
2023-02-18T16:03:11.605Z,97397.41
2023-02-18T16:05:42.527Z,97399.53
2023-02-18T16:08:26.898Z,97395.73
2023-02-18T16:11:03.174Z,97393.35
2023-02-18T16:13:32.893Z,97388.69
2023-02-18T16:16:01.960Z,97386.84
2023-02-18T16:18:41.997Z,97385.45
2023-02-18T16:21:19.318Z,97388.40
2023-02-18T16:24:00.306Z,97385.30
2023-02-18T16:26:33.077Z,97378.14
2023-02-18T16:29:26.825Z,97378.50
2023-02-18T16:31:55.442Z,97381.86
2023-02-18T16:34:23.730Z,97382.21
2023-02-18T16:37:10.270Z,97383.95
2023-02-18T16:39:38.522Z,97387.12
2023-02-18T16:42:15.940Z,97385.91
2023-02-18T16:44:44.339Z,97385.30
2023-02-18T16:47:17.342Z,97386.76
2023-02-18T16:49:47.574Z,97385.91
2023-02-18T16:52:18.103Z,97387.31
2023-02-18T16:54:48.524Z,97388.88
2023-02-18T16:57:16.548Z,97394.39
2023-02-18T16:59:44.547Z,97398.48
2023-02-18T17:02:20.801Z,97403.10
2023-02-18T17:04:49.153Z,97407.65
2023-02-18T17:07:17.798Z,97401.04
2023-02-18T17:09:45.968Z,97404.23
2023-02-18T17:12:14.426Z,97403.76
2023-02-18T17:14:44.021Z,97399.72
2023-02-18T17:17:18.387Z,97397.35
2023-02-18T17:19:46.932Z,97390.84
2023-02-18T17:22:15.665Z,97388.54
2023-02-18T17:24:43.720Z,97385.98
2023-02-18T17:27:11.868Z,97384.89
2023-02-18T17:29:39.859Z,97379.70
2023-02-18T17:32:08.931Z,97378.69
2023-02-18T17:34:41.171Z,97379.84
2023-02-18T17:37:15.277Z,97375.15
2023-02-18T17:39:43.441Z,97374.45
2023-02-18T17:42:12.387Z,97368.50
2023-02-18T17:44:40.882Z,97359.73
2023-02-18T17:47:09.150Z,97356.20
2023-02-18T17:49:37.547Z,97352.14
2023-02-18T17:52:05.825Z,97352.52
2023-02-18T17:54:34.179Z,97348.64
2023-02-18T17:57:02.758Z,97349.77
2023-02-18T17:59:30.989Z,97342.97
2023-02-18T18:01:59.203Z,97339.31
2023-02-18T18:04:27.558Z,97336.06
2023-02-18T18:06:56.062Z,97331.48
2023-02-18T18:09:24.941Z,97332.94
2023-02-18T18:11:53.689Z,97330.92
2023-02-18T18:14:22.290Z,97324.73
2023-02-18T18:16:50.951Z,97319.73
2023-02-18T18:19:19.598Z,97320.14
2023-02-18T18:21:49.148Z,97313.15
2023-02-18T18:24:17.690Z,97314.52
2023-02-18T18:26:45.904Z,97311.77
2023-02-18T18:29:14.251Z,97306.91
2023-02-18T18:31:43.573Z,97304.19
2023-02-18T18:34:12.813Z,97295.48
2023-02-18T18:36:41.507Z,97296.02
2023-02-18T18:39:10.099Z,97295.84
2023-02-18T18:41:38.613Z,97292.32
2023-02-18T18:44:07.166Z,97290.20
2023-02-18T18:46:35.709Z,97288.08
2023-02-18T18:49:04.693Z,97283.13
2023-02-18T18:51:33.753Z,97284.13
2023-02-18T18:54:02.188Z,97280.53
2023-02-18T18:56:30.809Z,97278.85
2023-02-18T18:59:00.028Z,97270.30
2023-02-18T19:01:29.490Z,97269.29
2023-02-18T19:03:58.443Z,97268.20
2023-02-18T19:06:26.675Z,97269.66
2023-02-18T19:08:54.970Z,97267.53
2023-02-18T19:11:23.284Z,97261.00
2023-02-18T19:13:51.819Z,97253.84
2023-02-18T19:16:32.219Z,97256.88
2023-02-18T19:19:00.299Z,97244.38
2023-02-18T19:21:28.567Z,97250.61
2023-02-18T19:23:56.830Z,97257.51
2023-02-18T19:26:25.019Z,97249.98
2023-02-18T19:28:53.355Z,97238.69
2023-02-18T19:31:24.967Z,97236.15
2023-02-18T19:33:53.811Z,97238.83
2023-02-18T19:36:22.096Z,97234.20
2023-02-18T19:38:51.960Z,97223.95
2023-02-18T19:41:20.461Z,97217.48
2023-02-18T19:43:48.742Z,97215.20
2023-02-18T19:46:18.908Z,97213.98
2023-02-18T19:48:52.858Z,97209.40
2023-02-18T19:51:25.225Z,97203.77
2023-02-18T19:53:54.832Z,97196.13
2023-02-18T19:56:24.505Z,97183.74
2023-02-18T19:58:56.582Z,97174.42
2023-02-18T20:01:24.768Z,97171.23
2023-02-18T20:03:53.898Z,97161.06
2023-02-18T20:06:22.644Z,97164.05
2023-02-18T20:08:51.513Z,97169.49
2023-02-18T20:11:20.810Z,97164.27
2023-02-18T20:13:49.459Z,97156.96
2023-02-18T20:16:17.894Z,97146.83
2023-02-18T20:18:46.136Z,97145.17
2023-02-18T20:21:14.669Z,97148.42
2023-02-18T20:23:43.430Z,97155.11
2023-02-18T20:26:14.923Z,97163.73
2023-02-18T20:28:44.916Z,97156.18
2023-02-18T20:31:14.649Z,97149.09
2023-02-18T20:33:44.062Z,97147.81
2023-02-18T20:36:14.325Z,97159.20
2023-02-18T20:38:43.175Z,97161.35
2023-02-18T20:41:14.755Z,97165.45
2023-02-18T20:43:43.507Z,97173.85
2023-02-18T20:46:14.453Z,97177.30
2023-02-18T20:48:44.403Z,97172.48
2023-02-18T20:51:16.674Z,97168.52
2023-02-18T20:53:46.918Z,97162.59
2023-02-18T20:56:15.690Z,97163.37
2023-02-18T20:58:44.205Z,97163.15
2023-02-18T21:01:17.610Z,97159.64
2023-02-18T21:03:48.037Z,97151.04
2023-02-18T21:06:19.460Z,97149.98
2023-02-18T21:08:51.535Z,97152.98
2023-02-18T21:11:25.722Z,97155.61
2023-02-18T21:13:56.646Z,97154.98
2023-02-18T21:16:26.923Z,97155.10
2023-02-18T21:18:56.218Z,97152.73
2023-02-18T21:21:25.168Z,97143.73
2023-02-18T21:23:54.446Z,97139.92
2023-02-18T21:26:24.858Z,97145.52
2023-02-18T21:28:59.228Z,97149.61
2023-02-18T21:31:34.248Z,97159.79
2023-02-18T21:34:05.760Z,97172.66
2023-02-18T21:36:34.608Z,97179.96
2023-02-18T21:39:07.016Z,97190.45
2023-02-18T21:41:39.801Z,97187.65
2023-02-18T21:44:10.181Z,97189.52
2023-02-18T21:46:39.909Z,97191.33
2023-02-18T21:49:12.652Z,97193.70
2023-02-18T21:52:08.720Z,97193.98
2023-02-18T21:54:40.117Z,97199.11
2023-02-18T21:57:15.585Z,97201.64
2023-02-18T21:59:45.492Z,97198.00
2023-02-18T22:02:22.614Z,97197.41
2023-02-18T22:04:52.009Z,97204.77
2023-02-18T22:07:22.610Z,97203.49
2023-02-18T22:09:52.069Z,97203.24
2023-02-18T22:12:23.332Z,97212.83
2023-02-18T22:14:52.915Z,97212.87
2023-02-18T22:17:21.875Z,97213.94
2023-02-18T22:19:50.116Z,97221.13
2023-02-18T22:22:18.833Z,97210.81
2023-02-18T22:24:47.345Z,97220.58
2023-02-18T22:27:16.341Z,97223.73
2023-02-18T22:29:45.008Z,97224.09
2023-02-18T22:32:14.358Z,97223.89
2023-02-18T22:34:42.712Z,97224.13
2023-02-18T22:37:10.986Z,97225.67
2023-02-18T22:39:39.552Z,97229.80
2023-02-18T22:42:07.933Z,97236.29
2023-02-18T22:44:36.318Z,97236.56
2023-02-18T22:47:04.957Z,97244.47
2023-02-18T22:49:33.813Z,97245.00
2023-02-18T22:52:02.703Z,97242.28
2023-02-18T22:54:30.947Z,97241.71
2023-02-18T22:56:59.058Z,97244.97
2023-02-18T22:59:27.406Z,97245.08
2023-02-18T23:01:55.555Z,97252.52
2023-02-18T23:04:24.088Z,97249.09
2023-02-18T23:06:52.591Z,97244.75
2023-02-18T23:09:26.632Z,97247.41
2023-02-18T23:11:59.333Z,97248.79
2023-02-18T23:14:30.124Z,97249.20
2023-02-18T23:17:13.417Z,97244.20
2023-02-18T23:19:45.333Z,97251.01
2023-02-18T23:22:21.318Z,97253.95
2023-02-18T23:24:49.762Z,97256.94
2023-02-18T23:27:19.224Z,97257.14
2023-02-18T23:29:49.065Z,97258.23
2023-02-18T23:32:18.129Z,97261.73
2023-02-18T23:34:46.438Z,97257.15
2023-02-18T23:37:14.913Z,97259.22
2023-02-18T23:39:45.501Z,97264.95
2023-02-18T23:42:14.431Z,97265.86
2023-02-18T23:44:42.776Z,97265.20
2023-02-18T23:47:11.124Z,97265.27
2023-02-18T23:49:39.802Z,97263.33
2023-02-18T23:52:08.563Z,97262.02
2023-02-18T23:54:36.851Z,97269.05
2023-02-18T23:57:05.331Z,97266.20
2023-02-18T23:59:33.979Z,97261.68
